createdAt,value
2018-11-26T00:00:32.215Z,97.10
2018-11-26T00:03:00.216Z,97.20
2018-11-26T00:05:28.252Z,97.50
2018-11-26T00:08:12.935Z,97.20
2018-11-26T00:10:52.011Z,97.20
2018-11-26T00:13:19.921Z,97.10
2018-11-26T00:15:47.847Z,97.10
2018-11-26T00:18:15.746Z,97.20
2018-11-26T00:20:43.704Z,97.20
2018-11-26T00:23:11.581Z,97.20
2018-11-26T00:25:39.482Z,97.10
2018-11-26T00:28:07.520Z,97.20
2018-11-26T00:30:35.431Z,97.20
2018-11-26T00:33:03.348Z,97.20
2018-11-26T00:35:31.291Z,97.20
2018-11-26T00:37:59.194Z,97.20
2018-11-26T00:40:27.122Z,97.20
2018-11-26T00:42:55.063Z,97.10
2018-11-26T00:45:23.035Z,97.10
2018-11-26T00:47:50.929Z,97.10
2018-11-26T00:50:18.864Z,97.10
2018-11-26T00:52:46.907Z,97.10
2018-11-26T00:55:14.802Z,97.00
2018-11-26T00:57:42.752Z,97.00
2018-11-26T01:00:12.007Z,97.00
2018-11-26T01:02:39.929Z,97.00
2018-11-26T01:05:11.171Z,97.10
2018-11-26T01:07:39.100Z,97.00
2018-11-26T01:10:07.027Z,97.00
2018-11-26T01:12:34.964Z,97.10
2018-11-26T01:15:03.085Z,97.10
2018-11-26T01:17:30.988Z,97.10
2018-11-26T01:19:58.920Z,97.20
2018-11-26T01:22:26.866Z,97.10
2018-11-26T01:24:54.768Z,97.20
2018-11-26T01:27:22.697Z,97.30
2018-11-26T01:29:50.606Z,97.20
2018-11-26T01:32:18.586Z,97.30
2018-11-26T01:34:46.515Z,97.20
2018-11-26T01:37:14.440Z,97.30
2018-11-26T01:39:43.151Z,97.30
2018-11-26T01:42:11.108Z,97.20
2018-11-26T01:44:39.018Z,97.20
2018-11-26T01:47:06.932Z,97.20
2018-11-26T01:49:34.895Z,97.20
2018-11-26T01:52:02.803Z,97.20
2018-11-26T01:54:30.742Z,97.20
2018-11-26T01:56:58.699Z,97.20
2018-11-26T01:59:26.639Z,97.30
2018-11-26T02:01:54.546Z,97.30
2018-11-26T02:04:22.542Z,97.30
2018-11-26T02:06:50.434Z,97.40
2018-11-26T02:09:18.335Z,97.40
2018-11-26T02:11:46.307Z,97.40
2018-11-26T02:14:14.208Z,97.40
2018-11-26T02:16:42.143Z,97.40
2018-11-26T02:19:10.120Z,97.40
2018-11-26T02:21:38.097Z,97.30
2018-11-26T02:24:06.048Z,97.40
2018-11-26T02:26:33.965Z,97.60
2018-11-26T02:29:01.872Z,97.30
2018-11-26T02:31:29.885Z,97.30
2018-11-26T02:33:57.824Z,97.30
2018-11-26T02:36:25.787Z,97.30
2018-11-26T02:38:53.704Z,97.40
2018-11-26T02:41:21.632Z,97.30
2018-11-26T02:43:49.534Z,97.30
2018-11-26T02:46:17.471Z,97.30
2018-11-26T02:48:45.477Z,97.20
2018-11-26T02:51:13.391Z,97.30
2018-11-26T02:53:41.298Z,97.30
2018-11-26T02:56:09.308Z,97.30
2018-11-26T02:58:37.208Z,97.30
2018-11-26T03:01:06.399Z,97.70
2018-11-26T03:03:34.364Z,97.40
2018-11-26T03:06:02.280Z,97.40
2018-11-26T03:08:30.251Z,97.40
2018-11-26T03:10:58.161Z,97.30
2018-11-26T03:13:26.054Z,97.40
2018-11-26T03:15:53.958Z,97.70
2018-11-26T03:18:21.878Z,97.40
2018-11-26T03:20:49.808Z,97.40
2018-11-26T03:23:17.800Z,97.30
2018-11-26T03:25:45.728Z,97.20
2018-11-26T03:28:13.631Z,97.30
2018-11-26T03:30:41.534Z,97.20
2018-11-26T03:33:09.467Z,97.20
2018-11-26T03:35:37.394Z,97.20
2018-11-26T03:38:05.572Z,97.20
2018-11-26T03:40:33.592Z,97.20
2018-11-26T03:43:01.485Z,97.20
2018-11-26T03:45:29.829Z,97.20
2018-11-26T03:47:57.812Z,97.20
2018-11-26T03:50:25.728Z,97.10
2018-11-26T03:52:53.649Z,97.00
2018-11-26T03:55:21.963Z,97.10
2018-11-26T03:57:49.967Z,97.10
2018-11-26T04:00:17.882Z,97.10
2018-11-26T04:02:45.829Z,97.10
2018-11-26T04:05:13.768Z,97.10
2018-11-26T04:07:41.767Z,97.10
2018-11-26T04:10:11.292Z,97.10
2018-11-26T04:12:39.333Z,97.00
2018-11-26T04:15:10.089Z,97.00
2018-11-26T04:17:38.046Z,97.00
2018-11-26T04:20:07.059Z,97.00
2018-11-26T04:22:34.973Z,97.00
2018-11-26T04:25:02.955Z,97.00
2018-11-26T04:27:30.876Z,97.00
2018-11-26T04:29:58.779Z,97.10
2018-11-26T04:32:26.710Z,97.00
2018-11-26T04:34:54.596Z,97.10
2018-11-26T04:37:22.466Z,97.00
2018-11-26T04:39:50.392Z,97.00
2018-11-26T04:42:18.290Z,97.00
2018-11-26T04:44:46.252Z,97.00
2018-11-26T04:47:14.200Z,96.90
2018-11-26T04:49:42.099Z,96.90
2018-11-26T04:52:09.986Z,96.90
2018-11-26T04:54:37.959Z,97.00
2018-11-26T04:57:05.880Z,97.00
2018-11-26T04:59:33.889Z,97.00
2018-11-26T05:02:01.805Z,96.90
2018-11-26T05:04:29.716Z,96.90
2018-11-26T05:06:57.612Z,97.10
2018-11-26T05:09:25.547Z,97.20
2018-11-26T05:11:53.481Z,97.10
2018-11-26T05:14:21.366Z,97.20
2018-11-26T05:16:49.356Z,97.20
2018-11-26T05:19:17.240Z,97.10
2018-11-26T05:21:45.126Z,97.20
2018-11-26T05:24:13.061Z,97.10
2018-11-26T05:26:40.953Z,97.20
2018-11-26T05:29:08.835Z,97.10
2018-11-26T05:31:36.761Z,97.10
2018-11-26T05:34:04.985Z,97.10
2018-11-26T05:36:32.980Z,97.10
2018-11-26T05:39:00.902Z,97.20
2018-11-26T05:41:28.807Z,97.10
2018-11-26T05:43:56.703Z,97.00
2018-11-26T05:46:24.631Z,97.00
2018-11-26T05:48:52.603Z,97.10
2018-11-26T05:51:20.525Z,97.10
2018-11-26T05:53:48.463Z,97.10
2018-11-26T05:56:16.397Z,97.20
2018-11-26T05:58:44.285Z,97.20
2018-11-26T06:01:12.347Z,97.20
2018-11-26T06:03:40.303Z,97.20
2018-11-26T06:06:08.199Z,97.10
2018-11-26T06:08:36.136Z,96.90
2018-11-26T06:11:04.177Z,96.90
2018-11-26T06:13:32.079Z,97.00
2018-11-26T06:16:04.931Z,97.20
2018-11-26T06:18:32.820Z,97.10
2018-11-26T06:21:00.772Z,97.00
2018-11-26T06:23:29.455Z,96.90
2018-11-26T06:25:57.343Z,96.90
2018-11-26T06:28:25.237Z,96.80
2018-11-26T06:30:54.172Z,96.70
2018-11-26T06:33:27.892Z,96.70
2018-11-26T06:35:55.904Z,96.50
2018-11-26T06:38:23.799Z,96.50
2018-11-26T06:40:51.725Z,96.30
2018-11-26T06:43:19.664Z,96.40
2018-11-26T06:45:47.559Z,96.20
2018-11-26T06:48:15.451Z,96.00
2018-11-26T06:50:43.421Z,96.10
2018-11-26T06:53:11.455Z,95.40
2018-11-26T06:55:39.418Z,94.80
2018-11-26T06:58:07.384Z,94.80
2018-11-26T07:00:35.336Z,94.80
2018-11-26T07:03:04.224Z,94.50
2018-11-26T07:05:32.218Z,94.60
2018-11-26T07:08:00.108Z,94.50
2018-11-26T07:10:28.008Z,94.60
2018-11-26T07:12:55.964Z,94.90
2018-11-26T07:15:23.896Z,94.40
2018-11-26T07:17:51.836Z,94.50
2018-11-26T07:20:20.772Z,94.40
2018-11-26T07:22:48.760Z,94.40
2018-11-26T07:25:18.340Z,94.40
2018-11-26T07:27:48.068Z,94.20
2018-11-26T07:30:17.355Z,94.40
2018-11-26T07:32:45.264Z,94.50
2018-11-26T07:35:13.936Z,94.40
2018-11-26T07:37:42.105Z,94.50
2018-11-26T07:40:12.429Z,94.60
2018-11-26T07:42:42.139Z,94.70
2018-11-26T07:45:12.740Z,94.80
2018-11-26T07:47:40.676Z,94.90
2018-11-26T07:50:13.213Z,94.90
2018-11-26T07:52:41.471Z,95.00
2018-11-26T07:55:12.119Z,94.90
2018-11-26T07:57:40.158Z,94.90
2018-11-26T08:00:13.709Z,95.00
2018-11-26T08:02:42.321Z,95.10
2018-11-26T08:05:11.669Z,95.00
2018-11-26T08:07:39.624Z,95.10
2018-11-26T08:10:12.731Z,95.50
2018-11-26T08:12:40.804Z,95.60
2018-11-26T08:15:13.807Z,95.70
2018-11-26T08:17:42.215Z,95.80
2018-11-26T08:20:10.659Z,95.50
2018-11-26T08:22:38.659Z,95.60
2018-11-26T08:25:09.266Z,95.70
2018-11-26T08:27:37.259Z,95.80
2018-11-26T08:30:24.077Z,95.90
2018-11-26T08:32:54.407Z,96.00
2018-11-26T08:35:22.339Z,96.10
2018-11-26T08:37:55.826Z,96.00
2018-11-26T08:40:26.075Z,96.10
2018-11-26T08:42:57.800Z,96.10
2018-11-26T08:45:29.267Z,96.10
2018-11-26T08:48:00.261Z,96.20
2018-11-26T08:50:28.169Z,96.20
2018-11-26T08:52:56.073Z,96.10
2018-11-26T08:55:23.991Z,96.10
2018-11-26T08:57:51.918Z,96.10
2018-11-26T09:00:19.863Z,96.10
2018-11-26T09:02:48.689Z,96.10
2018-11-26T09:05:27.020Z,96.10
2018-11-26T09:07:55.032Z,96.20
2018-11-26T09:10:22.936Z,96.20
2018-11-26T09:12:50.843Z,96.20
2018-11-26T09:15:18.747Z,96.20
2018-11-26T09:17:46.645Z,96.30
2018-11-26T09:20:14.572Z,96.30
2018-11-26T09:22:42.517Z,96.30
2018-11-26T09:25:11.578Z,96.30
2018-11-26T09:27:39.594Z,96.20
2018-11-26T09:30:11.772Z,96.20
2018-11-26T09:32:40.396Z,96.20
2018-11-26T09:35:10.135Z,96.20
2018-11-26T09:37:38.120Z,95.90
2018-11-26T09:40:07.958Z,96.00
2018-11-26T09:42:35.904Z,96.00
2018-11-26T09:45:05.044Z,96.00
2018-11-26T09:47:32.994Z,96.00
2018-11-26T09:50:00.954Z,96.00
2018-11-26T09:52:28.892Z,95.80
2018-11-26T09:54:56.792Z,95.80
2018-11-26T09:57:24.675Z,95.60
2018-11-26T09:59:52.663Z,95.40
2018-11-26T10:02:20.608Z,95.40
2018-11-26T10:04:48.632Z,95.10
2018-11-26T10:07:16.633Z,95.10
2018-11-26T10:09:44.527Z,94.60
2018-11-26T10:12:12.423Z,94.60
2018-11-26T10:14:40.350Z,94.50
2018-11-26T10:17:08.236Z,94.20
2018-11-26T10:19:36.187Z,93.30
2018-11-26T10:22:04.266Z,93.80
2018-11-26T10:24:32.157Z,93.90
2018-11-26T10:27:00.093Z,94.00
2018-11-26T10:29:28.023Z,92.90
2018-11-26T10:31:56.173Z,93.30
2018-11-26T10:34:24.130Z,93.40
2018-11-26T10:36:52.145Z,93.40
2018-11-26T10:39:20.046Z,93.40
2018-11-26T10:41:47.932Z,93.30
2018-11-26T10:44:15.872Z,93.30
2018-11-26T10:46:43.814Z,93.00
2018-11-26T10:49:11.740Z,93.00
2018-11-26T10:51:39.703Z,93.00
2018-11-26T10:54:07.613Z,92.70
2018-11-26T10:56:35.516Z,92.50
2018-11-26T10:59:03.499Z,92.40
2018-11-26T11:01:38.722Z,92.40
2018-11-26T11:04:07.104Z,91.70
2018-11-26T11:06:35.022Z,91.80
2018-11-26T11:09:03.405Z,91.70
2018-11-26T11:11:31.372Z,92.00
2018-11-26T11:13:59.309Z,92.00
2018-11-26T11:16:27.202Z,91.70
2018-11-26T11:18:55.217Z,92.00
2018-11-26T11:21:23.131Z,92.00
2018-11-26T11:23:51.015Z,92.20
2018-11-26T11:26:18.951Z,91.90
2018-11-26T11:28:46.874Z,91.80
2018-11-26T11:31:14.785Z,92.10
2018-11-26T11:33:42.737Z,91.50
2018-11-26T11:36:10.653Z,92.00
2018-11-26T11:38:38.563Z,92.00
2018-11-26T11:41:06.597Z,92.20
2018-11-26T11:43:34.508Z,92.10
2018-11-26T11:46:02.398Z,92.20
2018-11-26T11:48:30.340Z,92.10
2018-11-26T11:50:58.248Z,92.10
2018-11-26T11:53:26.161Z,91.90
2018-11-26T11:55:54.177Z,91.70
2018-11-26T11:58:22.103Z,91.80
2018-11-26T12:00:50.418Z,91.40
2018-11-26T12:03:19.515Z,91.40
2018-11-26T12:05:47.473Z,91.10
2018-11-26T12:08:15.507Z,91.20
2018-11-26T12:10:47.205Z,91.00
2018-11-26T12:13:15.695Z,90.90
2018-11-26T12:15:47.241Z,90.90
2018-11-26T12:18:15.165Z,90.70
2018-11-26T12:20:43.081Z,90.70
2018-11-26T12:23:11.141Z,90.60
2018-11-26T12:25:39.044Z,90.80
2018-11-26T12:28:06.987Z,90.80
2018-11-26T12:30:36.998Z,90.80
2018-11-26T12:33:05.281Z,90.70
2018-11-26T12:35:33.205Z,90.70
2018-11-26T12:38:01.164Z,90.90
2018-11-26T12:40:29.084Z,90.80
2018-11-26T12:42:58.348Z,91.00
2018-11-26T12:45:34.029Z,90.60
2018-11-26T12:48:02.341Z,90.40
2018-11-26T12:50:30.253Z,90.70
2018-11-26T12:52:58.450Z,90.60
2018-11-26T12:55:26.318Z,90.80
2018-11-26T12:57:55.305Z,91.10
2018-11-26T13:00:28.160Z,90.60
2018-11-26T13:03:14.496Z,90.40
2018-11-26T13:05:42.448Z,90.40
2018-11-26T13:08:10.384Z,90.40
2018-11-26T13:10:38.783Z,90.60
2018-11-26T13:13:08.208Z,90.80
2018-11-26T13:15:36.909Z,90.60
2018-11-26T13:18:05.212Z,90.20
2018-11-26T13:20:33.322Z,90.40
2018-11-26T13:23:01.269Z,90.70
2018-11-26T13:25:32.017Z,91.00
2018-11-26T13:28:02.173Z,91.10
2018-11-26T13:30:34.629Z,91.10
2018-11-26T13:33:04.031Z,91.10
2018-11-26T13:35:31.954Z,91.30
2018-11-26T13:37:59.913Z,91.50
2018-11-26T13:40:28.469Z,91.00
2018-11-26T13:42:56.408Z,91.10
2018-11-26T13:45:28.165Z,91.20
2018-11-26T13:47:57.059Z,91.30
2018-11-26T13:50:30.756Z,91.50
2018-11-26T13:52:58.904Z,91.60
2018-11-26T13:55:26.728Z,91.80
2018-11-26T13:57:54.653Z,91.80
2018-11-26T14:00:23.578Z,91.80
2018-11-26T14:02:51.608Z,91.80
2018-11-26T14:05:19.652Z,92.00
2018-11-26T14:07:47.832Z,91.60
2018-11-26T14:10:18.075Z,91.80
2018-11-26T14:12:47.866Z,92.10
2018-11-26T14:15:15.864Z,92.10
2018-11-26T14:17:43.828Z,92.10
2018-11-26T14:20:14.048Z,92.10
2018-11-26T14:22:42.121Z,92.20
2018-11-26T14:25:16.068Z,92.40
2018-11-26T14:27:44.804Z,92.40
2018-11-26T14:30:16.664Z,92.20
2018-11-26T14:32:44.581Z,91.80
2018-11-26T14:35:12.559Z,92.10
2018-11-26T14:37:41.458Z,91.90
2018-11-26T14:40:14.224Z,91.80
2018-11-26T14:42:42.868Z,91.90
2018-11-26T14:45:12.910Z,91.90
2018-11-26T14:47:41.184Z,91.80
2018-11-26T14:50:12.366Z,91.60
2018-11-26T14:52:42.112Z,91.40
2018-11-26T14:55:18.509Z,91.50
2018-11-26T14:57:47.436Z,91.20
2018-11-26T15:00:17.378Z,91.40
2018-11-26T15:02:45.612Z,91.30
2018-11-26T15:05:13.802Z,91.20
2018-11-26T15:07:42.368Z,91.40
2018-11-26T15:10:26.753Z,91.50
2018-11-26T15:12:56.444Z,91.40
2018-11-26T15:15:26.480Z,91.30
2018-11-26T15:17:57.334Z,91.30
2018-11-26T15:20:27.838Z,91.10
2018-11-26T15:23:00.567Z,91.20
2018-11-26T15:25:33.405Z,91.20
2018-11-26T15:28:15.925Z,91.00
2018-11-26T15:30:43.932Z,91.10
2018-11-26T15:33:11.979Z,91.00
2018-11-26T15:35:39.903Z,91.00
2018-11-26T15:38:08.732Z,91.40
2018-11-26T15:40:38.582Z,91.40
2018-11-26T15:43:08.048Z,91.70
2018-11-26T15:45:37.313Z,91.80
2018-11-26T15:48:09.964Z,92.00
2018-11-26T15:50:37.994Z,91.90
2018-11-26T15:53:07.830Z,91.90
2018-11-26T15:55:36.595Z,91.60
2018-11-26T15:58:06.180Z,91.60
2018-11-26T16:00:34.146Z,91.70
2018-11-26T16:03:02.115Z,91.70
2018-11-26T16:05:34.023Z,91.80
2018-11-26T16:08:12.175Z,91.90
2018-11-26T16:10:44.805Z,91.80
2018-11-26T16:13:16.960Z,92.00
2018-11-26T16:15:46.105Z,92.10
2018-11-26T16:18:22.950Z,92.20
2018-11-26T16:20:53.240Z,92.20
2018-11-26T16:23:49.613Z,92.20
2018-11-26T16:26:22.317Z,92.10
2018-11-26T16:28:55.276Z,92.20
2018-11-26T16:31:25.039Z,92.30
2018-11-26T16:33:53.201Z,92.40
2018-11-26T16:36:22.018Z,92.50
2018-11-26T16:38:51.138Z,92.70
2018-11-26T16:41:23.334Z,92.80
2018-11-26T16:43:53.155Z,93.00
2018-11-26T16:46:23.233Z,93.20
2018-11-26T16:48:55.973Z,93.20
2018-11-26T16:51:27.905Z,93.10
2018-11-26T16:53:56.828Z,93.10
2018-11-26T16:56:26.869Z,93.20
2018-11-26T16:58:56.078Z,93.10
2018-11-26T17:01:26.749Z,93.00
2018-11-26T17:03:57.137Z,93.00
2018-11-26T17:06:25.581Z,92.90
2018-11-26T17:08:55.502Z,92.90
2018-11-26T17:11:25.724Z,92.90
2018-11-26T17:13:55.025Z,92.90
2018-11-26T17:16:23.483Z,93.00
2018-11-26T17:18:56.403Z,93.00
2018-11-26T17:21:39.002Z,93.00
2018-11-26T17:24:09.184Z,93.00
2018-11-26T17:26:38.169Z,93.10
2018-11-26T17:29:07.714Z,93.20
2018-11-26T17:31:51.002Z,93.20
2018-11-26T17:34:23.045Z,93.30
2018-11-26T17:36:53.095Z,93.50
2018-11-26T17:39:22.420Z,93.60
2018-11-26T17:41:50.983Z,93.70
2018-11-26T17:44:19.544Z,93.70
2018-11-26T17:46:48.127Z,93.80
2018-11-26T17:49:18.649Z,93.80
2018-11-26T17:51:47.643Z,93.90
2018-11-26T17:54:17.251Z,93.90
2018-11-26T17:56:48.308Z,94.00
2018-11-26T17:59:18.817Z,94.20
2018-11-26T18:01:47.933Z,94.50
2018-11-26T18:04:17.340Z,94.70
2018-11-26T18:06:47.572Z,94.80
2018-11-26T18:09:22.806Z,94.70
2018-11-26T18:11:49.063Z,94.70
2018-11-26T18:14:20.109Z,94.60
2018-11-26T18:16:49.713Z,94.70
2018-11-26T18:19:19.368Z,94.60
2018-11-26T18:21:49.505Z,94.70
2018-11-26T18:24:21.313Z,94.60
2018-11-26T18:26:53.582Z,94.70
2018-11-26T18:29:25.454Z,94.60
2018-11-26T18:31:55.714Z,94.60
2018-11-26T18:34:24.659Z,94.60
2018-11-26T18:36:58.368Z,94.60
2018-11-26T18:39:30.597Z,94.60
2018-11-26T18:42:03.411Z,94.60
2018-11-26T18:44:39.051Z,94.50
2018-11-26T18:47:09.412Z,94.60
2018-11-26T18:49:42.013Z,94.70
2018-11-26T18:52:12.564Z,95.00
2018-11-26T18:54:51.088Z,95.00
2018-11-26T18:57:24.227Z,94.90
2018-11-26T18:59:54.432Z,94.80
2018-11-26T19:02:28.663Z,94.70
2018-11-26T19:05:06.540Z,94.70
2018-11-26T19:07:38.746Z,94.80
2018-11-26T19:10:20.323Z,94.80
2018-11-26T19:13:02.169Z,94.90
2018-11-26T19:15:35.052Z,94.80
2018-11-26T19:18:43.221Z,94.80
2018-11-26T19:21:14.621Z,95.00
2018-11-26T19:23:47.379Z,94.70
2018-11-26T19:26:16.826Z,94.70
2018-11-26T19:28:51.628Z,94.60
2018-11-26T19:31:27.679Z,94.50
2018-11-26T19:33:58.399Z,94.40
2018-11-26T19:36:27.714Z,94.40
2018-11-26T19:38:57.324Z,94.50
2018-11-26T19:41:28.203Z,94.50
2018-11-26T19:43:58.932Z,94.50
2018-11-26T19:46:28.361Z,94.50
2018-11-26T19:48:58.841Z,94.30
2018-11-26T19:51:31.501Z,94.30
2018-11-26T19:54:03.270Z,94.30
2018-11-26T19:56:36.622Z,94.40
2018-11-26T19:59:06.681Z,94.30
2018-11-26T20:01:40.314Z,94.30
2018-11-26T20:04:30.538Z,94.20
2018-11-26T20:07:00.876Z,94.10
2018-11-26T20:09:34.410Z,94.20
2018-11-26T20:12:04.125Z,94.40
2018-11-26T20:14:33.887Z,94.40
2018-11-26T20:17:04.177Z,94.30
2018-11-26T20:19:38.410Z,94.40
2018-11-26T20:22:07.337Z,94.60
2018-11-26T20:24:40.068Z,94.70
2018-11-26T20:27:13.661Z,94.70
2018-11-26T20:29:43.006Z,94.70
2018-11-26T20:32:15.130Z,94.60
2018-11-26T20:34:47.192Z,94.70
2018-11-26T20:37:17.449Z,94.30
2018-11-26T20:39:46.840Z,94.30
2018-11-26T20:42:16.571Z,94.40
2018-11-26T20:44:47.088Z,94.30
2018-11-26T20:47:16.778Z,94.10
2018-11-26T20:49:46.356Z,94.00
2018-11-26T20:52:15.728Z,94.10
2018-11-26T20:54:49.739Z,94.40
2018-11-26T20:57:21.101Z,94.40
2018-11-26T20:59:52.571Z,94.40
2018-11-26T21:02:21.312Z,94.60
2018-11-26T21:04:52.616Z,95.00
2018-11-26T21:07:22.223Z,95.00
2018-11-26T21:09:52.495Z,94.90
2018-11-26T21:12:22.391Z,94.40
2018-11-26T21:14:54.303Z,94.40
2018-11-26T21:17:25.313Z,94.70
2018-11-26T21:20:00.596Z,94.90
2018-11-26T21:22:32.755Z,95.00
2018-11-26T21:25:02.099Z,94.80
2018-11-26T21:27:39.569Z,95.10
2018-11-26T21:30:11.809Z,94.90
2018-11-26T21:32:42.325Z,94.90
2018-11-26T21:35:12.837Z,95.00
2018-11-26T21:37:47.995Z,95.00
2018-11-26T21:40:20.438Z,95.00
2018-11-26T21:42:47.196Z,95.10
2018-11-26T21:45:25.644Z,95.30
2018-11-26T21:47:56.204Z,95.40
2018-11-26T21:50:28.723Z,95.50
2018-11-26T21:53:04.393Z,95.50
2018-11-26T21:55:35.014Z,95.70
2018-11-26T21:58:10.023Z,95.70
2018-11-26T22:00:42.220Z,95.80
2018-11-26T22:03:13.440Z,95.80
2018-11-26T22:05:45.736Z,95.80
2018-11-26T22:08:16.249Z,95.90
2018-11-26T22:10:46.650Z,95.90
2018-11-26T22:13:20.897Z,95.80
2018-11-26T22:15:49.833Z,95.80
2018-11-26T22:18:20.069Z,96.00
2018-11-26T22:20:50.430Z,96.10
2018-11-26T22:23:19.961Z,96.70
2018-11-26T22:25:49.576Z,96.70
2018-11-26T22:28:19.099Z,96.70
2018-11-26T22:30:47.924Z,96.90
2018-11-26T22:33:17.555Z,96.50
2018-11-26T22:35:48.247Z,96.50
2018-11-26T22:38:16.796Z,96.50
2018-11-26T22:40:44.784Z,96.90
2018-11-26T22:43:13.241Z,96.50
2018-11-26T22:45:41.165Z,96.50
2018-11-26T22:48:11.843Z,96.40
2018-11-26T22:50:43.514Z,96.20
2018-11-26T22:53:11.550Z,95.90
2018-11-26T22:55:39.574Z,95.40
2018-11-26T22:58:14.237Z,95.00
2018-11-26T23:00:50.914Z,94.70
2018-11-26T23:03:21.132Z,94.50
2018-11-26T23:05:55.154Z,94.10
2018-11-26T23:08:23.770Z,94.30
2018-11-26T23:10:54.233Z,94.40
2018-11-26T23:13:22.709Z,94.30
2018-11-26T23:15:52.762Z,94.30
2018-11-26T23:18:20.810Z,94.50
2018-11-26T23:20:49.454Z,94.50
2018-11-26T23:23:18.154Z,94.40
2018-11-26T23:25:46.156Z,94.50
2018-11-26T23:28:14.137Z,94.50
2018-11-26T23:30:42.078Z,94.50
2018-11-26T23:33:10.086Z,94.60
2018-11-26T23:35:38.049Z,94.20
2018-11-26T23:38:06.090Z,94.30
2018-11-26T23:40:34.789Z,94.10
2018-11-26T23:43:02.712Z,94.40
2018-11-26T23:45:30.712Z,94.40
2018-11-26T23:47:58.655Z,94.70
2018-11-26T23:50:26.619Z,94.20
2018-11-26T23:52:54.596Z,94.10
2018-11-26T23:55:23.490Z,94.30
2018-11-26T23:57:51.477Z,94.30
